Archival Weather

Snohomish County (Paine Fld)

Everett, Washington (KPAE)

Report from: Tuesday, May 21, 2024 6:27 AM PDT
Current time: Saturday, June 22, 2024 3:43 AM PDT

Current weather – Weather history – Daily summaries
Weather forecast

Temperature9.4°C (48.9°F)
Wind chill7.0°C (44.6°F)
Dew point5.6°C (42.1°F)
Winds 9 kts (4.6 m/s, 10.4 mph) South-Southeast (150°)
Visibility10 mi. (16.1 km)
Clouds Ceiling: Broken clouds 1,900 ft. (579 m)
Overcast 6,500 ft. (1,981 m)
Altimeter30.14 in.Hg (1021 mB)
Relative humidity77 %
Density altitude-789 ft. (-240 m)
Remarks Fully automated report
Automated weather observing station with precipitation discriminator
Flight conditions Marginal Visual Meteorological Conditions
Raw dataKPAE 211327Z AUTO 15009KT 10SM BKN019 OVC065 09/06 A3014 RMK AO2 T00940056
An error has occurred. This application may no longer respond until reloaded. Reload 🗙